Woodland, PA (16881)

2:42 AM EDT on March 29, 2017 (GMT -0400)
Clearfield | | Change Station

Elev 1127 ft 41.02 °N, 78.46 °W | Updated 2 minutes ago

Overcast
Overcast
47.0 °F
Feels Like 47 °F
N
2.0
Wind Variable Wind from NNW
Gusts 11.0 mph

Today
High -- | Low -- °F
--% Chance of Precip.
Yesterday
High -- | Low -- °F
Precip. -- in
Pressure 30.07 in
Visibility 7.0 miles
Clouds Overcast 1800 ft
Windchill 47 °F
Dew Point 42 °F
Humidity 83%
Rainfall 0.00 in
Snow Depth Not available.
7:01 AM 7:35 PM
New Moon, 2% visible
METAR KUNV 290635Z AUTO 01011KT 7SM -DZ OVC018 08/06 A3007 RMK AO2 T00800057
Pressure 30.07 in
Visibility 7.0 miles
Clouds Overcast 1800 ft
Windchill 47 °F
Dew Point 42 °F
Humidity 83%
Rainfall 0.00 in
Snow Depth Not available.
7:01 AM 7:35 PM
New Moon, 2% visible
METAR KUNV 290635Z AUTO 01011KT 7SM -DZ OVC018 08/06 A3007 RMK AO2 T00800057

Get Severe Weather Alerts

Thanks for signing up!

Be on the lookout for a verification email in your inbox.

You'll start receiving the daily forecast at 8 AM.

×

10-Day Weather Forecast

Almanac

Astronomy

Mar. 29, 2017 Rise Set
Actual Time
Civil Twilight
Nautical Twilight
Astronomical Twilight
Moon
Length of Visible Light
Length of Day
Tomorrow will be .
, % of the Moon is Illuminated

Today's Extremes

State Highs State Lows

Community

WunderPhotos

Upload Photos

1,962,540 photos uploaded!

WunderBlog® & News

Nearby

Air Quality

  Air Quality AQ Index Pollutant
Not available.

Snow Depth

Station Depth Elevation

Earthquake Activity

City Distance Mag. Time & Date
Minimum magnitude displayed is 2.5.

Earthquake Activity

City Distance Mag. Time & Date
Minimum magnitude displayed is 2.5.

Coastal Water Temperatures

Place Temperature

Stations

Nearby Weather Stations

Station Location Temp. Windchill Dew Point Humidity Wind Precip. Elev Updated Type
                   

Watches & Warnings

There are currently no watches in effect.